Time;durP1;ratioP1;P1;durP2;ratioP2;P2;SDS_P1;SDS_P2;PMS_P1;PMS_P2;Temp;Humidity;BMP_temperature;BMP_pressure;BME280_temperature;BME280_humidity;BME280_pressure;Samples;Min_cycle;Max_cycle;Signal;HPM_P1;HPM_P2
2021/09/22 00:00:59;;;;;;;;;32.67;31.33;;;;;15.74;62.67;102647.06;5014587;28;45302;-76
2021/09/22 00:03:25;;;;;;;;;31.67;30.33;;;;;15.77;63.04;102653.38;5005026;28;47493;-76
2021/09/22 00:05:51;;;;;;;;;37.33;32.67;;;;;15.76;62.98;102646.22;5005024;28;46413;-77
2021/09/22 00:08:16;;;;;;;;;33.00;30.00;;;;;15.75;63.00;102646.19;5003994;28;45367;-77
2021/09/22 00:10:41;;;;;;;;;38.33;29.33;;;;;15.74;62.67;102645.31;5003522;28;46560;-77
2021/09/22 00:13:07;;;;;;;;;39.00;30.67;;;;;15.73;63.07;102645.28;5010007;28;45448;-76
2021/09/22 00:15:32;;;;;;;;;38.75;34.00;;;;;15.73;63.25;102648.84;5014248;28;53935;-76
2021/09/22 00:17:58;;;;;;;;;36.00;33.00;;;;;15.72;62.69;102649.72;5015353;28;45198;-76
2021/09/22 00:20:24;;;;;;;;;44.50;35.00;;;;;15.66;62.95;102639.84;5014621;28;46043;-76
2021/09/22 00:22:51;;;;;;;;;36.25;32.50;;;;;15.68;63.28;102645.19;5016110;28;45432;-77
2021/09/22 00:25:16;;;;;;;;;42.33;34.33;;;;;15.63;63.29;102637.13;5011795;28;47637;-77
2021/09/22 00:27:42;;;;;;;;;35.00;32.00;;;;;15.61;63.01;102643.25;5017638;28;45469;-77
2021/09/22 00:30:09;;;;;;;;;37.00;32.67;;;;;15.64;63.02;102643.34;5014644;28;45423;-77
2021/09/22 00:32:34;;;;;;;;;35.75;33.25;;;;;15.58;63.06;102648.50;5012132;28;45427;-77
2021/09/22 00:34:59;;;;;;;;;36.00;32.00;;;;;15.58;63.01;102646.75;5021528;28;47280;-76
2021/09/22 00:37:25;;;;;;;;;37.67;31.00;;;;;15.58;63.16;102644.09;5016853;28;48515;-77
2021/09/22 00:39:50;;;;;;;;;43.75;35.00;;;;;15.57;63.87;102633.41;5008419;28;48835;-77
2021/09/22 00:42:16;;;;;;;;;35.00;28.67;;;;;15.56;63.72;102627.19;5009029;28;45522;-76
2021/09/22 00:44:57;;;;;;;;;32.33;30.00;;;;;15.52;64.19;102621.78;5011167;28;46453;-76
2021/09/22 00:47:23;;;;;;;;;35.00;32.00;;;;;15.52;63.88;102630.66;5011220;28;45434;-76
2021/09/22 00:49:49;;;;;;;;;35.00;32.00;;;;;15.43;64.09;102611.84;5013970;28;45491;-76
2021/09/22 00:52:15;;;;;;;;;36.00;32.67;;;;;15.52;64.39;102629.75;5021084;28;45607;-76
2021/09/22 00:54:41;;;;;;;;;36.00;32.00;;;;;15.51;64.12;102630.63;5009755;28;46902;-78
2021/09/22 00:57:06;;;;;;;;;36.67;31.67;;;;;15.48;64.07;102622.56;5006800;28;45335;-76
2021/09/22 00:59:32;;;;;;;;;34.67;31.67;;;;;15.49;64.48;102622.59;5008810;28;45475;-76
2021/09/22 01:02:00;;;;;;;;;40.67;35.33;;;;;15.46;64.09;102618.13;5004237;28;51250;-77
2021/09/22 01:04:25;;;;;;;;;37.33;32.33;;;;;15.45;64.05;102624.31;5006848;28;56359;-77
2021/09/22 01:06:51;;;;;;;;;34.33;31.00;;;;;15.44;64.65;102613.63;5015626;28;54436;-77
2021/09/22 01:09:16;;;;;;;;;39.25;35.00;;;;;15.39;64.55;102610.91;5014130;28;49646;-77
2021/09/22 01:11:42;;;;;;;;;37.00;31.75;;;;;15.42;64.69;102618.03;4999005;28;45578;-77
2021/09/22 01:14:07;;;;;;;;;41.50;33.25;;;;;15.39;64.20;102608.25;5003280;28;46509;-76
2021/09/22 01:16:42;;;;;;;;;44.50;35.75;;;;;15.43;64.66;102619.81;5016564;28;45352;-77
2021/09/22 01:19:08;;;;;;;;;40.00;34.00;;;;;15.42;64.38;102618.94;5015038;28;45480;-77
2021/09/22 01:21:33;;;;;;;;;37.00;33.00;;;;;15.42;64.44;102607.38;5017337;28;45550;-76
2021/09/22 01:23:59;;;;;;;;;38.75;36.00;;;;;15.40;64.48;102601.16;5014735;28;47722;-77
2021/09/22 01:26:24;;;;;;;;;41.33;34.67;;;;;15.43;64.97;102601.19;5014037;28;54363;-77
2021/09/22 01:28:49;;;;;;;;;39.00;33.75;;;;;15.40;64.73;102590.50;5013204;28;50502;-78
2021/09/22 01:31:15;;;;;;;;;42.00;35.25;;;;;15.43;64.75;102601.19;5014778;28;45842;-76
2021/09/22 01:33:43;;;;;;;;;38.25;33.75;;;;;15.43;64.73;102610.06;5014996;28;57182;-77
2021/09/22 01:36:11;;;;;;;;;38.50;33.50;;;;;15.37;64.50;102601.97;5016777;28;45314;-76
2021/09/22 01:38:37;;;;;;;;;41.25;35.00;;;;;15.41;64.23;102606.50;5005393;28;45543;-77
2021/09/22 01:41:03;;;;;;;;;45.50;34.00;;;;;15.41;64.46;102616.25;5008751;28;49831;-76
2021/09/22 01:43:29;;;;;;;;;45.00;37.50;;;;;15.40;64.46;102611.78;5003382;28;46973;-76
2021/09/22 01:45:55;;;;;;;;;40.50;35.00;;;;;15.39;64.40;102607.31;5002214;28;45419;-76
2021/09/22 01:48:21;;;;;;;;;40.00;35.25;;;;;15.37;64.79;102609.06;5003236;28;45322;-76
2021/09/22 01:50:46;;;;;;;;;41.75;34.75;;;;;15.35;64.82;102611.69;5008220;28;45277;-76
2021/09/22 01:53:12;;;;;;;;;48.50;37.00;;;;;15.33;64.85;102609.84;4998156;28;46771;-77
2021/09/22 01:55:37;;;;;;;;;39.75;34.00;;;;;15.32;64.39;102605.41;5015474;28;45254;-77
2021/09/22 01:58:03;;;;;;;;;42.00;34.75;;;;;15.30;64.82;102610.72;5014098;28;50928;-76
2021/09/22 02:00:28;;;;;;;;;43.00;35.50;;;;;15.25;64.31;102598.19;5014749;28;45207;-77
2021/09/22 02:02:53;;;;;;;;;43.25;33.75;;;;;15.27;64.60;102612.41;5013279;28;45470;-76
2021/09/22 02:05:19;;;;;;;;;43.75;35.75;;;;;15.25;65.02;102598.19;5009770;28;45203;-76
2021/09/22 02:07:44;;;;;;;;;37.00;34.75;;;;;15.22;64.38;102603.44;5011712;28;45265;-77
2021/09/22 02:10:10;;;;;;;;;40.00;31.67;;;;;15.16;64.77;102601.53;5012052;28;45385;-77
2021/09/22 02:12:35;;;;;;;;;40.75;35.50;;;;;15.18;64.50;102603.38;5013452;28;46969;-76
2021/09/22 02:15:01;;;;;;;;;45.25;37.25;;;;;15.16;64.57;102596.22;5007868;28;45456;-76
2021/09/22 02:17:26;;;;;;;;;41.25;34.25;;;;;15.14;64.82;102589.97;5015095;28;45513;-77
2021/09/22 02:19:51;;;;;;;;;39.33;34.00;;;;;15.13;64.91;102597.06;5014254;28;48911;-77
2021/09/22 02:22:17;;;;;;;;;47.75;36.00;;;;;15.12;64.50;102579.28;5009177;28;55108;-76
2021/09/22 02:24:43;;;;;;;;;39.75;35.75;;;;;15.10;64.73;102573.03;4998395;28;45382;-77
2021/09/22 02:27:10;;;;;;;;;41.50;37.25;;;;;15.09;64.96;102571.25;5009524;28;45479;-77
2021/09/22 02:29:35;;;;;;;;;47.00;35.25;;;;;15.04;65.10;102562.28;5010160;28;45629;-76
2021/09/22 02:32:01;;;;;;;;;44.00;36.25;;;;;15.06;64.47;102556.97;5012939;28;57420;-76
2021/09/22 02:34:26;;;;;;;;;45.75;35.50;;;;;15.05;64.69;102560.53;5012819;28;54055;-77
2021/09/22 02:36:51;;;;;;;;;43.00;36.50;;;;;15.03;65.23;102560.50;5014505;28;45365;-77
2021/09/22 02:39:17;;;;;;;;;42.00;35.50;;;;;14.97;65.10;102548.81;5012399;28;45450;-77
2021/09/22 02:41:42;;;;;;;;;39.50;33.50;;;;;15.00;64.69;102547.13;5009617;28;47232;-76
2021/09/22 02:44:08;;;;;;;;;38.75;33.25;;;;;14.98;64.88;102540.00;5011711;28;53120;-76
2021/09/22 02:46:33;;;;;;;;;47.25;37.50;;;;;14.96;65.10;102545.25;5007174;28;49410;-76
2021/09/22 02:48:59;;;;;;;;;42.50;35.50;;;;;14.96;64.81;102545.25;5014050;28;45512;-77
2021/09/22 02:51:24;;;;;;;;;41.25;36.25;;;;;14.94;65.16;102544.34;5004312;28;46854;-76
2021/09/22 02:53:49;;;;;;;;;41.75;35.00;;;;;14.90;65.16;102534.50;5006301;28;49969;-77
2021/09/22 02:56:15;;;;;;;;;48.25;36.00;;;;;14.87;64.86;102524.72;5015235;28;48086;-77
2021/09/22 02:58:40;;;;;;;;;42.33;36.00;;;;;14.80;64.92;102513.91;5014513;28;45483;-76
2021/09/22 03:01:06;;;;;;;;;41.75;33.25;;;;;14.81;65.38;102515.72;5007239;28;57634;-76
2021/09/22 03:03:31;;;;;;;;;41.75;35.75;;;;;14.82;65.40;102521.06;5013263;28;54977;-77
2021/09/22 03:05:57;;;;;;;;;44.00;34.50;;;;;14.81;65.01;102516.59;5013485;28;45267;-76
2021/09/22 03:08:22;;;;;;;;;45.25;35.50;;;;;14.79;65.16;102512.09;5008692;28;45548;-76
2021/09/22 03:10:48;;;;;;;;;42.50;33.00;;;;;14.75;65.07;102511.13;5009666;28;46323;-76
2021/09/22 03:13:13;;;;;;;;;36.67;30.00;;;;;14.78;65.37;102520.94;5003454;28;48685;-77
2021/09/22 03:15:39;;;;;;;;;42.50;35.25;;;;;14.74;65.49;102512.00;4996317;28;45831;-77
2021/09/22 03:18:04;;;;;;;;;42.00;34.00;;;;;14.76;65.18;102512.94;5012647;28;45238;-77
2021/09/22 03:20:29;;;;;;;;;39.00;33.33;;;;;14.75;65.48;102520.88;5015177;28;47524;-76
2021/09/22 03:22:55;;;;;;;;;47.00;35.75;;;;;14.73;65.51;102517.31;5012875;28;56009;-76
2021/09/22 03:25:20;;;;;;;;;39.75;33.25;;;;;14.72;65.55;102516.41;4999408;28;47985;-76
2021/09/22 03:27:46;;;;;;;;;46.67;36.00;;;;;14.73;65.25;102512.88;5012978;28;46520;-77
2021/09/22 03:30:11;;;;;;;;;43.50;35.75;;;;;14.70;65.34;102510.16;5016225;28;47599;-77
2021/09/22 03:32:37;;;;;;;;;43.00;34.25;;;;;14.72;65.55;102512.84;5012985;28;45215;-76
2021/09/22 03:35:03;;;;;;;;;41.75;35.75;;;;;14.72;65.50;102515.50;4999943;28;45478;-77
2021/09/22 03:37:28;;;;;;;;;48.50;37.50;;;;;14.64;65.86;102502.94;5010983;28;45439;-76
2021/09/22 03:39:53;;;;;;;;;45.00;36.25;;;;;14.71;65.75;102514.63;5017477;28;46503;-77
2021/09/22 03:42:19;;;;;;;;;40.75;34.50;;;;;14.73;65.83;102522.63;5017086;28;45437;-77
2021/09/22 03:44:44;;;;;;;;;42.75;34.50;;;;;14.71;65.52;102511.97;5013700;28;45800;-76
2021/09/22 03:47:10;;;;;;;;;48.00;38.00;;;;;14.71;65.51;102519.03;5015343;28;45482;-77
2021/09/22 03:49:35;;;;;;;;;39.75;33.50;;;;;14.69;65.74;102511.00;5014894;28;47621;-77
2021/09/22 03:52:01;;;;;;;;;40.75;33.75;;;;;14.65;65.57;102503.88;5010126;28;48744;-77
2021/09/22 03:54:26;;;;;;;;;38.50;31.75;;;;;14.68;65.39;102519.84;5008097;28;45557;-76
2021/09/22 03:56:52;;;;;;;;;44.50;36.50;;;;;14.68;65.69;102526.06;5013011;28;45330;-77
2021/09/22 03:59:17;;;;;;;;;31.50;31.00;;;;;14.66;65.71;102525.16;4993897;28;46895;-76
2021/09/22 04:01:43;;;;;;;;;44.00;36.00;;;;;14.64;65.79;102532.19;5012414;28;47626;-76
2021/09/22 04:04:08;;;;;;;;;37.75;33.00;;;;;14.61;65.72;102533.91;5000536;28;48966;-76
2021/09/22 04:06:33;;;;;;;;;32.75;29.75;;;;;14.61;65.43;102539.22;5010372;28;45456;-76
2021/09/22 04:08:59;;;;;;;;;41.50;36.00;;;;;14.55;65.60;102533.78;5009575;28;56756;-75
2021/09/22 04:11:24;;;;;;;;;37.25;33.00;;;;;14.53;65.51;102541.69;5008688;28;51960;-77
2021/09/22 04:13:50;;;;;;;;;37.75;31.75;;;;;14.54;65.82;102545.25;5012899;28;45379;-77
2021/09/22 04:16:15;;;;;;;;;41.00;34.75;;;;;14.49;65.75;102539.84;5017042;28;45495;-77
2021/09/22 04:18:40;;;;;;;;;41.00;34.00;;;;;14.50;65.65;102551.38;5015313;28;55038;-76
2021/09/22 04:21:06;;;;;;;;;42.50;36.00;;;;;14.49;65.60;102553.13;5012724;28;45299;-76
2021/09/22 04:23:32;;;;;;;;;40.25;33.25;;;;;14.48;65.54;102547.75;5012197;28;45409;-76
2021/09/22 04:25:57;;;;;;;;;43.00;33.25;;;;;14.46;65.49;102549.47;5007861;28;45323;-77
2021/09/22 04:28:22;;;;;;;;;37.75;35.25;;;;;14.40;65.99;102540.50;5012403;28;50961;-77
2021/09/22 04:30:48;;;;;;;;;42.00;36.25;;;;;14.44;65.90;102553.88;5003468;28;45274;-76
2021/09/22 04:33:13;;;;;;;;;41.25;34.00;;;;;14.41;65.87;102547.59;5005318;28;45521;-76
2021/09/22 04:35:39;;;;;;;;;41.25;33.00;;;;;14.42;65.94;102548.50;5011810;28;45508;-76
2021/09/22 04:38:05;;;;;;;;;43.00;36.00;;;;;14.40;65.80;102548.47;5005038;28;47276;-76
2021/09/22 04:40:31;;;;;;;;;36.25;32.75;;;;;14.39;65.58;102540.47;5013271;28;45456;-77
2021/09/22 04:42:57;;;;;;;;;38.00;30.25;;;;;14.37;65.56;102537.75;5007188;28;45541;-76
2021/09/22 04:45:23;;;;;;;;;46.75;32.75;;;;;14.36;65.79;102535.06;5010180;28;45640;-75
2021/09/22 04:47:48;;;;;;;;;41.00;31.50;;;;;14.35;65.87;102534.19;5010774;28;47350;-76
2021/09/22 04:50:14;;;;;;;;;39.25;33.75;;;;;14.34;65.71;102539.47;5011374;28;45480;-77
2021/09/22 04:52:39;;;;;;;;;33.50;32.25;;;;;14.30;65.86;102537.59;5007646;28;45335;-76
2021/09/22 04:55:05;;;;;;;;;41.50;36.00;;;;;14.30;65.83;102541.13;5004244;28;46080;-77
2021/09/22 04:57:30;;;;;;;;;42.33;34.67;;;;;14.28;65.78;102548.19;5013089;28;46666;-76
2021/09/22 04:59:55;;;;;;;;;35.67;29.00;;;;;14.26;65.80;102543.69;5010601;28;45516;-76
2021/09/22 05:02:21;;;;;;;;;37.50;31.75;;;;;14.25;65.68;102555.19;5006790;28;50771;-76
2021/09/22 05:04:46;;;;;;;;;37.50;33.25;;;;;14.23;65.60;102556.91;5001124;28;51050;-77
2021/09/22 05:07:12;;;;;;;;;33.67;30.00;;;;;14.21;65.57;102548.88;5002809;28;46871;-77
2021/09/22 05:09:37;;;;;;;;;41.25;33.50;;;;;14.21;65.71;102545.34;5014115;28;45286;-77
2021/09/22 05:12:03;;;;;;;;;42.75;33.00;;;;;14.21;65.99;102548.00;5013598;28;45464;-77
2021/09/22 05:14:28;;;;;;;;;42.75;34.75;;;;;14.18;65.73;102548.84;5013175;28;45455;-77
2021/09/22 05:16:54;;;;;;;;;37.75;32.25;;;;;14.16;65.75;102547.88;5007510;28;46450;-76
2021/09/22 05:19:19;;;;;;;;;36.00;33.67;;;;;14.16;66.12;102543.47;5014407;28;53095;-77
2021/09/22 05:21:46;;;;;;;;;40.33;33.33;;;;;14.14;65.74;102549.63;5015857;28;45322;-78
2021/09/22 05:24:11;;;;;;;;;44.75;36.00;;;;;14.12;65.83;102546.03;5013786;28;45575;-77
2021/09/22 05:26:37;;;;;;;;;38.25;33.25;;;;;14.11;66.14;102547.81;5004563;28;53264;-77
2021/09/22 05:29:03;;;;;;;;;48.75;35.25;;;;;14.11;66.11;102550.47;5003474;28;45854;-77
2021/09/22 05:31:28;;;;;;;;;45.25;35.75;;;;;14.13;66.30;102551.38;5011812;28;45325;-77
2021/09/22 05:33:53;;;;;;;;;36.00;33.25;;;;;14.13;66.02;102548.72;5016613;28;45456;-77
2021/09/22 05:36:19;;;;;;;;;44.25;36.00;;;;;14.12;65.97;102544.28;5011950;28;58230;-80
2021/09/22 05:38:44;;;;;;;;;42.50;34.25;;;;;14.12;66.20;102543.38;4999617;28;51219;-79
2021/09/22 05:41:10;;;;;;;;;41.25;35.25;;;;;14.12;66.04;102552.25;5005951;28;45380;-84
2021/09/22 05:43:35;;;;;;;;;41.25;34.00;;;;;14.06;66.12;102538.81;5000830;28;45305;-82
2021/09/22 05:46:00;;;;;;;;;39.00;33.75;;;;;14.12;66.06;102544.28;4981075;28;47584;-81
2021/09/22 05:48:26;;;;;;;;;40.00;33.25;;;;;14.10;66.10;102547.75;5001161;28;53231;-80
2021/09/22 05:50:51;;;;;;;;;43.25;36.25;;;;;14.13;66.13;102548.72;4997999;28;45436;-81
2021/09/22 05:53:17;;;;;;;;;50.00;39.00;;;;;14.12;65.89;102551.34;5009719;28;45271;-79
2021/09/22 05:55:42;;;;;;;;;38.50;33.75;;;;;14.10;66.10;102545.09;5003768;28;47046;-78
2021/09/22 05:58:07;;;;;;;;;46.75;37.25;;;;;14.11;66.01;102552.19;5005623;28;46342;-79
2021/09/22 06:00:33;;;;;;;;;42.00;34.00;;;;;14.12;66.38;102561.97;5002812;28;46042;-77
2021/09/22 06:02:58;;;;;;;;;42.50;34.00;;;;;14.13;66.35;102563.75;5002163;28;45539;-77
2021/09/22 06:05:24;;;;;;;;;41.75;34.00;;;;;14.13;66.35;102559.34;4967901;28;57535;-77
2021/09/22 06:07:49;;;;;;;;;46.00;38.75;;;;;14.19;66.55;102571.88;5001866;28;45502;-77
2021/09/22 06:10:14;;;;;;;;;44.25;37.75;;;;;14.22;66.42;102568.38;5012406;28;45482;-77
2021/09/22 06:12:40;;;;;;;;;40.50;34.00;;;;;14.25;66.57;102561.38;5012339;28;46357;-77
2021/09/22 06:15:06;;;;;;;;;42.25;35.50;;;;;14.29;66.58;102559.72;5011649;28;46315;-77
2021/09/22 06:17:31;;;;;;;;;48.50;39.00;;;;;14.33;66.78;102561.59;5013385;28;45521;-77
2021/09/22 06:19:56;;;;;;;;;50.25;36.50;;;;;14.35;66.76;102560.75;5012890;28;45469;-78
2021/09/22 06:22:25;;;;;;;;;44.75;34.75;;;;;14.37;66.46;102560.78;5007773;28;45441;-83
2021/09/22 06:24:51;;;;;;;;;43.75;35.25;;;;;14.44;66.53;102569.81;4996691;28;47380;-76
2021/09/22 06:27:17;;;;;;;;;50.25;36.75;;;;;14.44;66.85;102557.41;5010469;28;45392;-77
2021/09/22 06:29:42;;;;;;;;;48.75;37.25;;;;;14.55;66.34;102568.31;5000925;28;45892;-82
2021/09/22 06:32:07;;;;;;;;;42.75;38.75;;;;;14.58;67.06;102571.94;5011175;28;45635;-76
2021/09/22 06:34:33;;;;;;;;;40.50;35.25;;;;;14.58;66.91;102566.59;5010818;28;47304;-75
2021/09/22 06:36:58;;;;;;;;;43.50;36.00;;;;;14.67;66.92;102573.91;5010672;28;45515;-76
2021/09/22 06:39:24;;;;;;;;;51.00;36.75;;;;;14.66;66.43;102562.38;5012121;28;45428;-77
2021/09/22 06:41:49;;;;;;;;;47.25;35.25;;;;;14.74;66.42;102574.94;5009814;28;45501;-77
2021/09/22 06:44:14;;;;;;;;;44.00;37.00;;;;;14.77;66.36;102575.00;5019951;28;47624;-75
2021/09/22 06:46:40;;;;;;;;;47.00;37.25;;;;;14.81;66.35;102575.13;4998698;28;45370;-77
2021/09/22 06:49:05;;;;;;;;;48.25;40.50;;;;;14.84;66.16;102568.94;5012722;28;49275;-75
2021/09/22 06:51:31;;;;;;;;;46.75;38.25;;;;;14.85;66.83;102562.75;5010032;28;46992;-75
2021/09/22 06:53:56;;;;;;;;;42.50;37.50;;;;;14.91;66.45;102573.53;5012554;28;55368;-75
2021/09/22 06:56:24;;;;;;;;;45.50;37.25;;;;;14.90;66.11;102575.28;5013322;28;45551;-78
2021/09/22 06:58:50;;;;;;;;;47.25;38.25;;;;;14.96;66.09;102574.50;5013940;28;45313;-77
2021/09/22 07:01:15;;;;;;;;;41.75;37.50;;;;;15.00;66.27;102581.69;5019604;28;45352;-76
2021/09/22 07:03:40;;;;;;;;;46.25;37.50;;;;;15.02;65.96;102590.63;5015201;28;57206;-75
2021/09/22 07:06:09;;;;;;;;;43.75;37.00;;;;;15.05;65.89;102579.13;5016453;28;53820;-75
2021/09/22 07:08:34;;;;;;;;;50.75;36.50;;;;;15.04;65.93;102575.59;5016285;28;45508;-75
2021/09/22 07:10:59;;;;;;;;;45.75;37.50;;;;;15.07;65.74;102569.41;4996942;28;45550;-76
2021/09/22 07:13:25;;;;;;;;;42.75;35.00;;;;;15.13;65.44;102586.44;4999992;28;45719;-78
2021/09/22 07:15:50;;;;;;;;;44.25;35.25;;;;;15.16;65.56;102583.81;5001267;28;51597;-76
2021/09/22 07:18:18;;;;;;;;;42.25;35.25;;;;;15.21;65.19;102589.22;5019547;28;49449;-75
2021/09/22 07:20:43;;;;;;;;;43.50;36.25;;;;;15.19;65.58;102589.19;4999796;28;45469;-75
2021/09/22 07:23:08;;;;;;;;;44.50;33.50;;;;;15.20;65.30;102588.34;5018663;28;46371;-75
2021/09/22 07:25:34;;;;;;;;;42.75;37.25;;;;;15.26;65.09;102589.31;5015278;28;45502;-75
2021/09/22 07:27:59;;;;;;;;;46.00;35.00;;;;;15.32;65.07;102590.34;5152551;22;45818;-77
2021/09/22 07:30:25;;;;;;;;;52.75;39.25;;;;;15.35;65.14;102593.06;5031946;28;45506;-78
2021/09/22 07:32:50;;;;;;;;;45.75;37.75;;;;;15.38;65.03;102590.44;5031643;28;56774;-75
2021/09/22 07:35:16;;;;;;;;;45.25;37.25;;;;;15.39;64.55;102589.59;5037626;28;52677;-76
2021/09/22 07:37:42;;;;;;;;;43.75;35.25;;;;;15.43;64.29;102586.09;5034288;28;46256;-75
2021/09/22 07:40:08;;;;;;;;;42.00;34.00;;;;;15.50;64.39;102604.84;5036400;28;45630;-76
2021/09/22 07:42:34;;;;;;;;;47.75;36.50;;;;;15.44;64.22;102587.91;5032601;28;47326;-75
2021/09/22 07:44:59;;;;;;;;;44.50;35.00;;;;;15.52;64.64;102596.03;5033263;28;45409;-76
2021/09/22 07:47:25;;;;;;;;;45.50;34.75;;;;;15.56;64.05;102608.56;5035485;28;45573;-76
2021/09/22 07:49:51;;;;;;;;;45.25;36.75;;;;;15.60;64.39;102606.81;5035977;28;45675;-76
2021/09/22 07:52:17;;;;;;;;;45.75;34.75;;;;;15.57;63.80;102599.69;5033671;28;56821;-76
2021/09/22 07:54:42;;;;;;;;;46.25;35.00;;;;;15.67;64.04;102609.69;5014859;28;46565;-74
2021/09/22 07:57:09;;;;;;;;;45.25;34.50;;;;;15.70;63.89;102606.16;5036071;28;45509;-74
2021/09/22 07:59:36;;;;;;;;;45.25;36.50;;;;;15.73;63.64;102602.69;5033414;28;45387;-75
2021/09/22 08:02:01;;;;;;;;;43.50;37.50;;;;;15.75;63.42;102601.81;5034842;28;46736;-75
2021/09/22 08:04:27;;;;;;;;;43.50;35.75;;;;;15.78;63.58;102593.91;5033549;28;45557;-77
2021/09/22 08:06:53;;;;;;;;;51.00;37.00;;;;;15.79;63.59;102598.34;5016427;28;46050;-74
2021/09/22 08:09:19;;;;;;;;;48.33;35.00;;;;;15.83;63.29;102599.31;5029852;28;45826;-76
2021/09/22 08:11:44;;;;;;;;;40.25;34.50;;;;;15.83;63.61;102599.31;5032611;28;47339;-75
2021/09/22 08:14:10;;;;;;;;;43.00;35.00;;;;;15.87;63.01;102607.38;5035260;28;45471;-75
2021/09/22 08:16:35;;;;;;;;;46.25;33.75;;;;;15.92;63.51;102607.44;5035427;28;49597;-75
2021/09/22 08:19:00;;;;;;;;;40.00;36.33;;;;;15.94;63.30;102611.94;5035305;28;45496;-75
2021/09/22 08:21:26;;;;;;;;;46.25;37.25;;;;;15.97;63.37;102603.09;5035692;28;54456;-77
2021/09/22 08:23:51;;;;;;;;;41.00;35.33;;;;;16.03;62.97;102612.94;5016539;28;48537;-75
2021/09/22 08:26:16;;;;;;;;;35.67;33.00;;;;;16.04;62.92;102607.66;5034600;28;47513;-75
2021/09/22 08:28:42;;;;;;;;;43.00;34.67;;;;;16.08;63.01;102605.94;5036536;28;45645;-75
2021/09/22 08:31:07;;;;;;;;;41.00;35.00;;;;;16.08;62.41;102597.94;5032363;28;55275;-76
2021/09/22 08:33:33;;;;;;;;;38.67;35.00;;;;;16.12;62.67;102605.13;5035452;28;45602;-74
2021/09/22 08:35:58;;;;;;;;;45.50;36.25;;;;;16.14;62.74;102606.97;5028593;28;45448;-73
2021/09/22 08:38:24;;;;;;;;;39.67;34.33;;;;;16.18;62.22;102607.88;5033274;28;45602;-75
2021/09/22 08:40:50;;;;;;;;;43.33;32.00;;;;;16.23;62.48;102617.75;5032027;28;47616;-75
2021/09/22 08:43:16;;;;;;;;;50.25;36.75;;;;;16.27;62.27;102601.81;5014874;28;45503;-75
2021/09/22 08:45:41;;;;;;;;;39.00;32.33;;;;;16.30;62.62;102605.44;5031982;28;46011;-74
2021/09/22 08:48:09;;;;;;;;;47.00;34.50;;;;;16.34;62.21;102607.25;5034451;28;46886;-75
2021/09/22 08:50:34;;;;;;;;;40.33;36.00;;;;;16.25;62.35;102588.47;5031812;28;46722;-75
2021/09/22 08:52:59;;;;;;;;;47.25;37.25;;;;;16.43;62.61;102614.50;5031807;28;45525;-74
2021/09/22 08:55:25;;;;;;;;;39.67;35.00;;;;;16.48;62.51;102616.38;5026316;28;45823;-74
2021/09/22 08:57:50;;;;;;;;;45.50;37.00;;;;;16.49;62.24;102609.25;5028043;28;45450;-74
2021/09/22 09:00:16;;;;;;;;;46.75;38.00;;;;;16.56;62.13;102610.25;5028345;28;53120;-74
2021/09/22 09:02:43;;;;;;;;;44.50;36.75;;;;;16.55;61.57;102613.78;5034628;28;45349;-75
2021/09/22 09:05:11;;;;;;;;;45.75;37.25;;;;;16.61;62.29;102614.78;5028288;28;45612;-74
2021/09/22 09:07:54;;;;;;;;;44.67;36.00;;;;;16.67;61.75;102612.22;5029070;28;45511;-73
2021/09/22 09:10:24;;;;;;;;;40.67;33.33;;;;;16.70;61.66;102614.91;5029292;28;45743;-74
2021/09/22 09:13:04;;;;;;;;;43.25;36.25;;;;;16.72;61.26;102606.94;5014563;28;45533;-73
2021/09/22 09:15:31;;;;;;;;;43.33;36.00;;;;;16.80;61.15;102615.09;5028350;28;45589;-74
2021/09/22 09:17:59;;;;;;;;;41.50;35.50;;;;;16.81;61.58;102609.75;5032440;28;45483;-74
2021/09/22 09:20:25;;;;;;;;;37.67;32.00;;;;;16.86;61.44;102615.16;5032239;28;46782;-74
2021/09/22 09:23:05;;;;;;;;;46.00;36.33;;;;;16.91;60.79;102610.78;5033423;28;45538;-73
2021/09/22 09:25:38;;;;;;;;;36.25;33.00;;;;;16.95;60.83;102612.63;5030773;28;45524;-77
2021/09/22 09:28:27;;;;;;;;;39.33;33.00;;;;;17.00;60.99;102608.25;5032891;28;45709;-75
2021/09/22 09:31:10;;;;;;;;;43.00;34.33;;;;;17.05;60.69;102609.19;5032043;28;47607;-75
2021/09/22 09:33:40;;;;;;;;;43.33;34.33;;;;;17.09;60.41;102603.00;5029281;28;45607;-73
2021/09/22 09:36:35;;;;;;;;;39.67;33.33;;;;;17.14;60.34;102608.41;5019607;28;45586;-74
2021/09/22 09:39:12;;;;;;;;;39.67;32.67;;;;;17.20;60.20;102600.47;5032316;28;45631;-73
2021/09/22 09:41:45;;;;;;;;;45.67;35.33;;;;;17.24;60.06;102603.19;5034248;28;47536;-76
2021/09/22 09:44:12;;;;;;;;;41.33;33.00;;;;;17.28;60.00;102599.69;5030287;28;45432;-74
2021/09/22 09:46:38;;;;;;;;;46.33;36.00;;;;;17.32;59.99;102591.72;5032081;28;45428;-74
2021/09/22 09:49:08;;;;;;;;;40.33;32.33;;;;;17.38;59.54;102600.69;5032426;28;45417;-73
2021/09/22 09:51:43;;;;;;;;;39.33;34.00;;;;;17.41;59.35;102594.47;5026683;28;46458;-73
2021/09/22 09:54:20;;;;;;;;;38.67;33.67;;;;;17.42;58.68;102581.16;5034524;28;45346;-73
2021/09/22 09:56:46;;;;;;;;;30.67;30.33;;;;;17.50;59.05;102589.25;5009507;28;45397;-75
2021/09/22 09:59:11;;;;;;;;;34.33;29.00;;;;;17.52;59.04;102582.13;5024170;28;45347;-73
2021/09/22 10:01:41;;;;;;;;;32.67;31.00;;;;;17.58;58.74;102581.28;5030525;28;47018;-73
2021/09/22 10:04:07;;;;;;;;;40.33;34.00;;;;;17.63;58.35;102591.19;5035511;28;45319;-74
2021/09/22 10:06:33;;;;;;;;;36.33;30.33;;;;;17.67;58.10;102584.06;5034809;28;45345;-74
2021/09/22 10:08:59;;;;;;;;;34.00;30.33;;;;;17.73;57.79;102581.47;5034023;28;45585;-73
2021/09/22 10:11:24;;;;;;;;;26.67;25.33;;;;;17.75;57.85;102569.94;5031177;28;45942;-73
2021/09/22 10:13:50;;;;;;;;;36.00;29.00;;;;;17.78;58.02;102569.94;5017657;28;45565;-73
2021/09/22 10:16:16;;;;;;;;;31.33;28.67;;;;;17.84;57.62;102570.88;5035503;28;45487;-73
2021/09/22 10:18:41;;;;;;;;;41.00;33.67;;;;;17.88;58.02;102570.03;5029836;28;45537;-74
2021/09/22 10:21:08;;;;;;;;;26.67;24.00;;;;;17.92;57.49;102567.41;5012233;28;58956;-74
2021/09/22 10:23:33;;;;;;;;;33.67;30.00;;;;;17.98;57.12;102558.53;5035380;28;45286;-74
2021/09/22 10:25:59;;;;;;;;;36.33;33.00;;;;;17.97;57.59;102548.75;5000858;28;51686;-74
2021/09/22 10:28:41;;;;;;;;;36.67;31.67;;;;;18.08;56.90;102555.06;5002552;28;45615;-74
2021/09/22 10:31:28;;;;;;;;;26.67;23.33;;;;;18.17;56.34;102543.56;5022914;28;47622;-75
2021/09/22 10:33:54;;;;;;;;;29.33;27.33;;;;;18.18;56.20;102537.31;5033379;28;45581;-74
2021/09/22 10:36:41;;;;;;;;;29.67;29.00;;;;;18.26;56.22;102533.78;5032918;28;45771;-75
2021/09/22 10:39:08;;;;;;;;;29.33;25.33;;;;;18.31;56.27;102534.72;5034871;28;45671;-75
2021/09/22 10:41:44;;;;;;;;;25.67;23.67;;;;;18.33;55.55;102522.25;5036658;28;46385;-75
2021/09/22 10:44:11;;;;;;;;;22.67;20.00;;;;;18.38;56.19;102511.59;5036369;28;45544;-75
2021/09/22 10:46:36;;;;;;;;;25.33;24.00;;;;;18.47;55.58;102510.72;5034434;28;45525;-75
2021/09/22 10:49:04;;;;;;;;;25.00;20.67;;;;;18.53;55.08;102508.09;5034257;28;47381;-75
2021/09/22 10:51:50;;;;;;;;;21.67;19.00;;;;;18.59;54.48;102509.03;5036470;28;47795;-75
2021/09/22 10:54:16;;;;;;;;;21.33;20.00;;;;;18.66;54.60;102509.94;5035017;28;45460;-75
2021/09/22 10:56:57;;;;;;;;;17.00;15.67;;;;;18.70;54.38;102511.78;5034098;28;45554;-75
2021/09/22 10:59:28;;;;;;;;;21.00;17.33;;;;;18.76;53.99;102503.78;5034476;28;45822;-74
2021/09/22 11:01:53;;;;;;;;;23.00;19.00;;;;;18.81;53.72;102504.69;5027551;28;46866;-75
2021/09/22 11:04:19;;;;;;;;;20.00;18.33;;;;;18.86;52.83;102507.41;5035531;28;45423;-75
2021/09/22 11:06:48;;;;;;;;;21.00;19.67;;;;;18.90;52.70;102503.81;5035921;28;45688;-75